Time;durP1;ratioP1;P1;durP2;ratioP2;P2;SDS_P1;SDS_P2;PMS_P1;PMS_P2;Temp;Humidity;BMP_temperature;BMP_pressure;BME280_temperature;BME280_humidity;BME280_pressure;Samples;Min_cycle;Max_cycle;Signal;HPM_P1;HPM_P2
2021/08/01 00:00:20;;;;;;;8.63;3.38;;;22.70;63.90;;;;;;5032260;28;20029;-70
2021/08/01 00:02:47;;;;;;;4.38;3.80;;;22.70;63.80;;;;;;5033098;28;20099;-70
2021/08/01 00:05:13;;;;;;;4.75;3.22;;;22.70;63.50;;;;;;5033077;28;20025;-71
2021/08/01 00:07:39;;;;;;;3.13;2.70;;;22.70;63.60;;;;;;5032732;28;20037;-71
2021/08/01 00:10:07;;;;;;;4.05;2.78;;;22.70;63.40;;;;;;5032409;28;20033;-70
2021/08/01 00:12:35;;;;;;;4.72;2.60;;;22.70;63.50;;;;;;5032673;28;20029;-70
2021/08/01 00:15:01;;;;;;;5.05;2.90;;;22.70;63.30;;;;;;5032931;28;20036;-71
2021/08/01 00:17:27;;;;;;;3.33;2.97;;;22.70;63.30;;;;;;5032968;28;20026;-71
2021/08/01 00:19:53;;;;;;;3.83;2.60;;;22.70;63.20;;;;;;5032973;28;20025;-71
2021/08/01 00:22:20;;;;;;;5.32;3.30;;;22.70;63.30;;;;;;5032968;28;20096;-70
2021/08/01 00:24:46;;;;;;;4.35;2.92;;;22.70;63.20;;;;;;5032572;28;20025;-71
2021/08/01 00:27:12;;;;;;;5.18;3.05;;;22.80;63.20;;;;;;5032807;28;20025;-71
2021/08/01 00:29:37;;;;;;;3.58;2.60;;;22.80;63.20;;;;;;5031977;28;20133;-71
2021/08/01 00:32:04;;;;;;;11.10;3.25;;;22.80;63.30;;;;;;5032351;28;20049;-71
2021/08/01 00:34:30;;;;;;;6.50;3.10;;;22.80;63.20;;;;;;5030651;28;20052;-71
2021/08/01 00:36:56;;;;;;;10.25;3.40;;;22.70;63.10;;;;;;5032691;28;20089;-72
2021/08/01 00:39:22;;;;;;;34.95;5.20;;;22.70;63.30;;;;;;5032417;28;20026;-70
2021/08/01 00:41:48;;;;;;;4.38;2.72;;;22.70;63.40;;;;;;5031403;28;20057;-71
2021/08/01 00:44:14;;;;;;;3.45;2.88;;;22.80;63.40;;;;;;5032490;28;20033;-71
2021/08/01 00:46:41;;;;;;;3.28;2.90;;;22.70;63.20;;;;;;5031428;28;20544;-71
2021/08/01 00:49:07;;;;;;;4.32;2.72;;;22.70;63.30;;;;;;5032594;28;20151;-71
2021/08/01 00:51:33;;;;;;;5.00;3.10;;;22.70;63.40;;;;;;5031311;28;20025;-71
2021/08/01 00:54:03;;;;;;;3.53;3.00;;;22.70;63.40;;;;;;5032207;28;20426;-71
2021/08/01 00:56:33;;;;;;;4.22;2.97;;;22.80;63.40;;;;;;5031767;28;20018;-72
2021/08/01 00:58:59;;;;;;;5.40;3.13;;;22.80;63.20;;;;;;5030213;28;20028;-71
2021/08/01 01:01:34;;;;;;;5.18;3.05;;;22.80;63.10;;;;;;5031170;28;20029;-71
2021/08/01 01:04:27;;;;;;;3.13;2.80;;;22.80;63.00;;;;;;5032486;28;20022;-70
2021/08/01 01:07:05;;;;;;;6.22;3.00;;;22.80;62.80;;;;;;5032603;28;20028;-71
2021/08/01 01:09:55;;;;;;;3.15;2.80;;;22.80;62.80;;;;;;5032028;28;20164;-70
2021/08/01 01:12:27;;;;;;;7.32;3.70;;;22.80;62.50;;;;;;5032311;28;20031;-71
2021/08/01 01:14:56;;;;;;;4.60;3.33;;;22.80;62.50;;;;;;5032416;28;20021;-70
2021/08/01 01:17:28;;;;;;;6.82;3.05;;;22.80;62.40;;;;;;5032296;28;20075;-72
2021/08/01 01:20:21;;;;;;;3.58;3.13;;;22.70;62.30;;;;;;5030977;28;20022;-72
2021/08/01 01:23:13;;;;;;;6.55;3.42;;;22.70;62.30;;;;;;5032343;28;20088;-72
2021/08/01 01:25:57;;;;;;;4.43;3.03;;;22.70;62.20;;;;;;5030949;28;20026;-71
2021/08/01 01:28:32;;;;;;;6.75;3.65;;;22.60;62.30;;;;;;5032248;28;20485;-72
2021/08/01 01:31:28;;;;;;;5.50;3.10;;;22.60;62.70;;;;;;5031788;28;20091;-71
2021/08/01 01:33:59;;;;;;;5.13;3.13;;;22.60;62.80;;;;;;5032132;28;20021;-72
2021/08/01 01:36:27;;;;;;;2.90;2.47;;;22.60;62.90;;;;;;5031889;28;20021;-71
2021/08/01 01:38:57;;;;;;;3.75;2.70;;;22.60;63.10;;;;;;5025805;28;20028;-71
2021/08/01 01:41:25;;;;;;;2.97;2.67;;;22.60;63.40;;;;;;5032158;28;20033;-72
2021/08/01 01:43:53;;;;;;;3.97;2.88;;;22.60;63.10;;;;;;5032186;28;20025;-72
2021/08/01 01:46:20;;;;;;;8.05;3.30;;;22.60;63.30;;;;;;5034854;28;20075;-71
2021/08/01 01:48:47;;;;;;;4.05;3.10;;;22.60;63.30;;;;;;5035565;28;20053;-70
2021/08/01 01:51:14;;;;;;;4.13;3.20;;;22.60;63.50;;;;;;5033708;28;20104;-71
2021/08/01 01:53:40;;;;;;;4.10;3.30;;;22.70;63.60;;;;;;5035361;28;20028;-71
2021/08/01 01:56:09;;;;;;;4.18;3.30;;;22.70;63.50;;;;;;5035019;28;20053;-71
2021/08/01 01:58:34;;;;;;;5.10;3.55;;;22.70;63.40;;;;;;5015620;28;20025;-71
2021/08/01 02:01:01;;;;;;;7.57;4.15;;;22.80;63.30;;;;;;5015571;28;20376;-71
2021/08/01 02:03:27;;;;;;;5.88;4.00;;;22.80;63.50;;;;;;5014290;28;20026;-71
2021/08/01 02:05:53;;;;;;;5.35;3.80;;;22.80;63.50;;;;;;5014212;28;20554;-71
2021/08/01 02:08:19;;;;;;;5.43;4.05;;;22.80;63.30;;;;;;5034690;28;20026;-70
2021/08/01 02:10:56;;;;;;;7.38;4.65;;;22.80;63.60;;;;;;5035284;28;20383;-71
2021/08/01 02:13:29;;;;;;;7.72;4.68;;;22.90;64.10;;;;;;5034970;28;20498;-71
2021/08/01 02:15:58;;;;;;;5.82;4.45;;;22.90;64.00;;;;;;5035040;28;20483;-71
2021/08/01 02:18:27;;;;;;;9.55;4.93;;;22.90;63.80;;;;;;5034794;28;20379;-70
2021/08/01 02:20:55;;;;;;;6.05;4.47;;;22.90;63.80;;;;;;5013923;28;20022;-71
2021/08/01 02:23:30;;;;;;;6.18;4.30;;;22.90;64.10;;;;;;5034587;28;20029;-71
2021/08/01 02:25:57;;;;;;;10.52;4.68;;;22.90;64.30;;;;;;5034903;28;20037;-71
2021/08/01 02:28:27;;;;;;;10.18;6.10;;;23.00;64.30;;;;;;5034923;28;20022;-71
2021/08/01 02:30:54;;;;;;;12.75;5.25;;;23.00;64.40;;;;;;5034737;28;20045;-71
2021/08/01 02:33:26;;;;;;;7.75;4.95;;;23.00;64.20;;;;;;5034557;28;20024;-70
2021/08/01 02:35:55;;;;;;;5.97;4.63;;;23.00;64.20;;;;;;5034773;28;20030;-71
2021/08/01 02:38:22;;;;;;;8.32;4.97;;;23.00;64.40;;;;;;5034669;28;20425;-70
2021/08/01 02:40:50;;;;;;;6.53;3.95;;;23.00;64.50;;;;;;5034704;28;20025;-70
2021/08/01 02:43:19;;;;;;;5.05;4.20;;;23.00;64.30;;;;;;5034630;28;20129;-71
2021/08/01 02:45:46;;;;;;;5.40;3.97;;;23.00;64.60;;;;;;5018835;28;20026;-71
2021/08/01 02:48:14;;;;;;;5.13;3.50;;;23.00;64.50;;;;;;5016992;28;20029;-70
2021/08/01 02:50:46;;;;;;;4.68;3.88;;;23.00;64.60;;;;;;5033712;28;20483;-72
2021/08/01 02:53:17;;;;;;;6.28;4.20;;;23.00;64.80;;;;;;5033216;28;20514;-71
2021/08/01 02:55:43;;;;;;;4.82;4.18;;;23.00;64.90;;;;;;5034094;28;20175;-71
2021/08/01 02:58:09;;;;;;;5.28;4.32;;;23.00;64.80;;;;;;5033572;28;20021;-70
2021/08/01 03:00:36;;;;;;;7.45;4.07;;;23.00;64.60;;;;;;5034239;28;20025;-72
2021/08/01 03:03:05;;;;;;;5.50;3.83;;;23.00;64.60;;;;;;5033850;28;20047;-71
2021/08/01 03:05:31;;;;;;;6.60;3.88;;;23.00;64.70;;;;;;5034204;28;20021;-71
2021/08/01 03:07:57;;;;;;;4.63;3.95;;;23.00;64.70;;;;;;5034116;28;20029;-71
2021/08/01 03:10:23;;;;;;;5.40;4.35;;;23.00;64.90;;;;;;5034093;28;20116;-71
2021/08/01 03:12:50;;;;;;;8.77;4.82;;;23.00;65.60;;;;;;5033990;28;20101;-71
2021/08/01 03:15:17;;;;;;;5.05;3.45;;;23.00;66.50;;;;;;5033966;28;20033;-71
2021/08/01 03:17:43;;;;;;;8.75;4.15;;;23.00;66.50;;;;;;5033822;28;20026;-71
2021/08/01 03:20:10;;;;;;;5.40;3.80;;;23.00;66.60;;;;;;5033931;28;20096;-71
2021/08/01 03:22:36;;;;;;;8.95;4.97;;;23.00;66.70;;;;;;5033488;28;20026;-71
2021/08/01 03:25:03;;;;;;;7.65;4.60;;;23.00;66.80;;;;;;5033827;28;20032;-71
2021/08/01 03:27:29;;;;;;;5.68;4.05;;;22.90;67.00;;;;;;5033814;28;20526;-71
2021/08/01 03:29:55;;;;;;;5.30;3.90;;;22.90;67.10;;;;;;5032430;28;20095;-71
2021/08/01 03:32:22;;;;;;;4.78;3.53;;;22.90;66.80;;;;;;5033268;28;20499;-71
2021/08/01 03:34:48;;;;;;;8.55;3.92;;;22.80;66.70;;;;;;5033553;28;20034;-71
2021/08/01 03:37:14;;;;;;;3.97;3.28;;;22.80;66.50;;;;;;5033581;28;20079;-71
2021/08/01 03:39:41;;;;;;;6.60;3.55;;;22.70;66.40;;;;;;5033422;28;20053;-71
2021/08/01 03:42:08;;;;;;;6.40;4.18;;;22.60;66.40;;;;;;5033237;28;20104;-72
2021/08/01 03:44:34;;;;;;;4.85;3.20;;;22.50;66.20;;;;;;5033437;28;20104;-71
2021/08/01 03:47:00;;;;;;;6.55;2.72;;;22.50;66.40;;;;;;5032721;28;20033;-72
2021/08/01 03:49:26;;;;;;;4.88;3.15;;;22.50;66.50;;;;;;5033202;28;20031;-71
2021/08/01 03:51:51;;;;;;;5.00;3.30;;;22.40;66.60;;;;;;5032313;28;20384;-71
2021/08/01 03:54:17;;;;;;;4.50;3.45;;;22.40;66.60;;;;;;5033130;28;20083;-71
2021/08/01 03:56:44;;;;;;;4.93;3.60;;;22.40;66.50;;;;;;5033207;28;20100;-70
2021/08/01 03:59:11;;;;;;;4.97;3.15;;;22.30;66.30;;;;;;5033189;28;20018;-72
2021/08/01 04:01:37;;;;;;;3.28;2.83;;;22.30;66.30;;;;;;5032969;28;20018;-70
2021/08/01 04:04:04;;;;;;;4.85;3.30;;;22.30;66.40;;;;;;5032988;28;20030;-71
2021/08/01 04:06:30;;;;;;;4.13;3.17;;;22.30;66.40;;;;;;5032416;28;20456;-71
2021/08/01 04:08:56;;;;;;;6.88;3.00;;;22.30;66.30;;;;;;5032936;28;20051;-71
2021/08/01 04:11:22;;;;;;;3.67;2.95;;;22.30;66.10;;;;;;5032945;28;20506;-71
2021/08/01 04:13:48;;;;;;;3.97;2.72;;;22.40;66.10;;;;;;5032842;28;20035;-71
2021/08/01 04:16:14;;;;;;;5.70;2.83;;;22.40;65.90;;;;;;5025003;28;20046;-71
2021/08/01 04:18:40;;;;;;;4.13;2.80;;;22.40;65.90;;;;;;5013179;28;20018;-71
2021/08/01 04:21:13;;;;;;;3.78;3.03;;;22.50;66.00;;;;;;5015722;28;20104;-71
2021/08/01 04:23:40;;;;;;;3.00;2.40;;;22.50;65.70;;;;;;5033239;28;20379;-71
2021/08/01 04:26:07;;;;;;;2.70;2.42;;;22.50;65.60;;;;;;5032483;28;20287;-71
2021/08/01 04:28:33;;;;;;;3.75;2.85;;;22.50;65.60;;;;;;5032682;28;20104;-71
2021/08/01 04:30:59;;;;;;;4.30;3.10;;;22.60;65.50;;;;;;5032537;28;20050;-71
2021/08/01 04:33:25;;;;;;;4.03;2.65;;;22.60;65.40;;;;;;5032835;28;20035;-71
2021/08/01 04:35:51;;;;;;;3.65;2.63;;;22.60;65.40;;;;;;5032566;28;20053;-70
2021/08/01 04:38:17;;;;;;;4.50;2.70;;;22.60;65.40;;;;;;5032781;28;20079;-69
2021/08/01 04:40:43;;;;;;;3.00;2.70;;;22.60;65.30;;;;;;5032533;28;20067;-70
2021/08/01 04:43:09;;;;;;;3.78;2.33;;;22.60;65.30;;;;;;5032761;28;20425;-70
2021/08/01 04:45:35;;;;;;;5.43;3.40;;;22.60;65.30;;;;;;5031364;28;20037;-71
2021/08/01 04:48:01;;;;;;;5.68;3.20;;;22.60;65.30;;;;;;5032488;28;20495;-70
2021/08/01 04:50:26;;;;;;;5.57;3.40;;;22.60;65.30;;;;;;5032397;28;20478;-70
2021/08/01 04:52:52;;;;;;;4.75;3.05;;;22.60;65.20;;;;;;5032110;28;20029;-71
2021/08/01 04:55:19;;;;;;;3.80;2.92;;;22.60;65.20;;;;;;5031828;28;20041;-71
2021/08/01 04:57:45;;;;;;;3.92;3.15;;;22.60;65.10;;;;;;5032615;28;20025;-71
2021/08/01 05:00:12;;;;;;;5.47;2.90;;;22.60;65.10;;;;;;5032472;28;20025;-71
2021/08/01 05:02:38;;;;;;;3.45;3.03;;;22.60;65.20;;;;;;5032508;28;20387;-71
2021/08/01 05:05:05;;;;;;;4.63;3.13;;;22.60;65.30;;;;;;5032051;28;20029;-70
2021/08/01 05:07:31;;;;;;;5.75;3.17;;;22.60;65.20;;;;;;5032383;28;20481;-70
2021/08/01 05:09:58;;;;;;;4.43;3.15;;;22.70;65.50;;;;;;5031777;28;20032;-70
2021/08/01 05:12:24;;;;;;;5.65;3.42;;;22.60;65.30;;;;;;5032413;28;20417;-70
2021/08/01 05:14:50;;;;;;;3.42;2.60;;;22.70;65.40;;;;;;5032352;28;20093;-71
2021/08/01 05:17:16;;;;;;;3.15;2.78;;;22.70;65.30;;;;;;5032331;28;20022;-72
2021/08/01 05:19:42;;;;;;;3.30;2.60;;;22.70;65.20;;;;;;5031306;28;20607;-70
2021/08/01 05:22:09;;;;;;;4.10;2.75;;;22.70;65.10;;;;;;5033266;28;20084;-71
2021/08/01 05:24:39;;;;;;;2.55;2.35;;;22.80;65.10;;;;;;5038950;28;20025;-70
2021/08/01 05:27:05;;;;;;;3.35;2.53;;;22.80;65.10;;;;;;5035920;28;20108;-69
2021/08/01 05:29:31;;;;;;;8.20;3.03;;;22.70;64.90;;;;;;5034815;28;20100;-70
2021/08/01 05:31:57;;;;;;;5.88;2.45;;;22.70;64.80;;;;;;5035760;28;20124;-71
2021/08/01 05:34:23;;;;;;;4.47;2.63;;;22.70;64.80;;;;;;5035858;28;20197;-71
2021/08/01 05:36:49;;;;;;;2.78;2.35;;;22.80;64.90;;;;;;5035648;28;20056;-70
2021/08/01 05:39:15;;;;;;;2.45;2.20;;;22.80;64.90;;;;;;5035799;28;20516;-70
2021/08/01 05:41:42;;;;;;;3.45;2.38;;;22.80;65.00;;;;;;5035502;28;20064;-71
2021/08/01 05:44:07;;;;;;;4.60;2.38;;;22.80;65.20;;;;;;5035763;28;20360;-70
2021/08/01 05:46:33;;;;;;;4.22;2.50;;;22.90;65.20;;;;;;5031864;28;20025;-71
2021/08/01 05:48:59;;;;;;;4.15;2.70;;;22.90;65.10;;;;;;5015786;28;20105;-69
2021/08/01 05:51:25;;;;;;;3.58;2.60;;;22.90;65.10;;;;;;5018587;28;20120;-71
2021/08/01 05:53:51;;;;;;;4.32;2.15;;;23.00;64.70;;;;;;5035458;28;20029;-71
2021/08/01 05:56:16;;;;;;;3.72;2.38;;;23.00;64.90;;;;;;5035117;28;20041;-71
2021/08/01 05:58:43;;;;;;;5.28;2.70;;;23.10;64.90;;;;;;5035347;28;20075;-71
2021/08/01 06:01:13;;;;;;;2.67;2.10;;;23.20;64.60;;;;;;5035453;28;20491;-70
2021/08/01 06:03:40;;;;;;;3.83;2.47;;;23.20;64.20;;;;;;5035218;28;20037;-72
2021/08/01 06:06:17;;;;;;;2.17;1.98;;;23.30;64.40;;;;;;5035380;28;20052;-71
2021/08/01 06:08:45;;;;;;;3.90;2.17;;;23.30;64.30;;;;;;5033995;28;20031;-71
2021/08/01 06:11:11;;;;;;;2.13;1.92;;;23.40;64.60;;;;;;5034777;28;20064;-70
2021/08/01 06:13:38;;;;;;;2.20;2.00;;;23.50;64.20;;;;;;5035036;28;20053;-71
2021/08/01 06:16:07;;;;;;;3.38;2.20;;;23.70;63.60;;;;;;5032835;28;20029;-71
2021/08/01 06:18:33;;;;;;;4.13;2.00;;;23.70;63.40;;;;;;5033254;28;20041;-70
2021/08/01 06:21:05;;;;;;;3.42;2.05;;;23.80;63.10;;;;;;5034201;28;20060;-71
2021/08/01 06:23:31;;;;;;;2.83;1.95;;;23.90;62.40;;;;;;5035009;28;20033;-73
2021/08/01 06:25:57;;;;;;;2.20;2.00;;;23.90;61.80;;;;;;5034614;28;20017;-71
2021/08/01 06:28:23;;;;;;;2.53;2.05;;;23.90;61.70;;;;;;5034870;28;20132;-70
2021/08/01 06:30:48;;;;;;;2.35;1.38;;;24.00;61.90;;;;;;5034191;28;20049;-70
2021/08/01 06:33:14;;;;;;;3.60;1.90;;;24.00;62.20;;;;;;5034052;28;20013;-70
2021/08/01 06:35:40;;;;;;;2.45;2.00;;;24.10;62.60;;;;;;5034534;28;20025;-70
2021/08/01 06:38:05;;;;;;;1.88;1.67;;;24.10;61.50;;;;;;5034131;28;20516;-74
2021/08/01 06:40:31;;;;;;;2.20;2.00;;;24.20;61.50;;;;;;5034575;28;20029;-71
2021/08/01 06:42:57;;;;;;;3.15;2.38;;;24.20;61.60;;;;;;5034328;28;20021;-71
2021/08/01 06:45:23;;;;;;;7.70;3.63;;;24.30;60.80;;;;;;5034659;28;20360;-71
2021/08/01 06:47:48;;;;;;;9.02;3.58;;;24.40;61.00;;;;;;5034249;28;20022;-71
2021/08/01 06:50:14;;;;;;;7.45;3.15;;;24.40;60.80;;;;;;5033687;28;20029;-70
2021/08/01 06:52:40;;;;;;;7.22;2.30;;;24.50;60.30;;;;;;5032397;28;20034;-71
2021/08/01 06:55:06;;;;;;;6.82;2.65;;;24.70;60.60;;;;;;5034259;28;20032;-71
2021/08/01 06:57:32;;;;;;;6.00;2.97;;;24.80;60.10;;;;;;5034482;28;20454;-71
2021/08/01 06:59:58;;;;;;;3.20;2.22;;;24.90;59.70;;;;;;5034129;28;20049;-70
2021/08/01 07:02:23;;;;;;;3.03;2.30;;;25.00;59.40;;;;;;5034262;28;20049;-71
2021/08/01 07:04:49;;;;;;;7.60;2.40;;;25.00;59.00;;;;;;5033774;28;20036;-71
2021/08/01 07:07:15;;;;;;;2.33;1.90;;;25.00;59.20;;;;;;5034180;28;20029;-71
2021/08/01 07:09:41;;;;;;;1.95;1.75;;;25.00;59.00;;;;;;5033459;28;20017;-71
2021/08/01 07:12:08;;;;;;;2.58;2.08;;;25.10;58.70;;;;;;5033935;28;20483;-70
2021/08/01 07:14:34;;;;;;;3.40;2.30;;;25.00;58.70;;;;;;5032782;28;20492;-70
2021/08/01 07:17:01;;;;;;;3.97;2.05;;;25.10;58.70;;;;;;5034070;28;20041;-71
2021/08/01 07:19:27;;;;;;;2.10;1.90;;;25.10;59.10;;;;;;5014143;28;20050;-71
2021/08/01 07:21:53;;;;;;;2.53;2.03;;;25.10;59.10;;;;;;5031220;28;20029;-71
2021/08/01 07:24:19;;;;;;;8.43;2.60;;;25.10;59.20;;;;;;5053662;28;20063;-70
2021/08/01 07:26:47;;;;;;;2.63;2.42;;;25.10;58.80;;;;;;5053720;28;20053;-71
2021/08/01 07:29:13;;;;;;;3.60;2.40;;;25.20;58.90;;;;;;5052409;28;20060;-71
2021/08/01 07:31:39;;;;;;;3.63;2.25;;;25.20;59.20;;;;;;5053373;28;20170;-71
2021/08/01 07:34:05;;;;;;;5.07;3.42;;;25.20;59.30;;;;;;5052261;28;20116;-71
2021/08/01 07:36:30;;;;;;;7.18;3.42;;;25.30;59.40;;;;;;5053533;28;20530;-72
2021/08/01 07:38:56;;;;;;;3.60;3.30;;;25.30;59.20;;;;;;5033640;28;20029;-71
2021/08/01 07:41:22;;;;;;;6.55;3.50;;;25.40;58.90;;;;;;5033516;28;20053;-71
2021/08/01 07:43:50;;;;;;;4.60;3.30;;;25.40;59.20;;;;;;5033099;28;20129;-71
2021/08/01 07:46:18;;;;;;;3.75;3.20;;;25.40;58.80;;;;;;5033400;28;20471;-71
2021/08/01 07:48:44;;;;;;;3.88;3.47;;;25.50;58.90;;;;;;5033193;28;20025;-72
2021/08/01 07:51:09;;;;;;;5.68;3.30;;;25.70;58.80;;;;;;5032823;28;20021;-71
2021/08/01 07:53:35;;;;;;;5.28;4.07;;;25.80;58.70;;;;;;5031499;28;20023;-71
2021/08/01 07:56:01;;;;;;;7.72;4.03;;;26.00;57.80;;;;;;5033346;28;20105;-71
2021/08/01 07:58:27;;;;;;;7.60;3.72;;;26.20;58.10;;;;;;5032850;28;20036;-72
2021/08/01 08:00:52;;;;;;;4.63;3.58;;;26.50;57.40;;;;;;5033156;28;20049;-71
2021/08/01 08:03:18;;;;;;;4.10;3.35;;;26.70;56.70;;;;;;5033082;28;20476;-71
2021/08/01 08:05:44;;;;;;;5.43;3.00;;;26.90;55.70;;;;;;5032691;28;20071;-73
2021/08/01 08:08:10;;;;;;;3.13;2.83;;;27.10;54.70;;;;;;5033128;28;20025;-72
2021/08/01 08:10:36;;;;;;;4.15;3.17;;;27.20;54.50;;;;;;5033017;28;20030;-72
2021/08/01 08:13:03;;;;;;;3.38;3.03;;;27.20;54.50;;;;;;5031689;28;20036;-72
2021/08/01 08:15:28;;;;;;;5.60;3.10;;;27.30;54.70;;;;;;5032914;28;20030;-73
2021/08/01 08:17:54;;;;;;;3.97;3.58;;;27.30;54.50;;;;;;5032729;28;20075;-71
2021/08/01 08:20:20;;;;;;;3.67;3.35;;;27.30;54.40;;;;;;5032817;28;20434;-72
2021/08/01 08:22:46;;;;;;;3.78;3.03;;;27.30;55.00;;;;;;5032575;28;20034;-72
2021/08/01 08:25:11;;;;;;;3.30;2.53;;;27.50;55.30;;;;;;5031554;28;20076;-72
2021/08/01 08:27:37;;;;;;;2.90;2.10;;;27.60;55.00;;;;;;5032467;28;20033;-71
2021/08/01 08:30:06;;;;;;;2.75;2.40;;;27.70;53.40;;;;;;5032644;28;20022;-71
2021/08/01 08:32:33;;;;;;;6.57;2.60;;;27.70;53.40;;;;;;5032398;28;20383;-71
2021/08/01 08:35:00;;;;;;;2.22;2.03;;;27.80;53.30;;;;;;5029350;28;20030;-72
2021/08/01 08:37:26;;;;;;;6.35;2.40;;;27.90;52.70;;;;;;5031368;28;20021;-73
2021/08/01 08:39:52;;;;;;;2.45;1.77;;;27.90;52.20;;;;;;5032652;28;20022;-72
2021/08/01 08:42:18;;;;;;;3.67;2.00;;;27.90;52.50;;;;;;5032682;28;20128;-72
2021/08/01 08:44:44;;;;;;;3.92;2.65;;;27.90;52.20;;;;;;5032600;28;20506;-73
2021/08/01 08:47:16;;;;;;;4.88;3.17;;;27.90;51.10;;;;;;5024482;28;20029;-72
2021/08/01 08:49:47;;;;;;;5.35;3.35;;;27.70;50.20;;;;;;5018314;28;20018;-72
2021/08/01 08:52:13;;;;;;;3.45;3.03;;;27.60;50.50;;;;;;5040831;28;20484;-72
2021/08/01 08:54:44;;;;;;;4.55;2.50;;;27.30;49.90;;;;;;5026126;28;20041;-72
2021/08/01 08:57:25;;;;;;;4.00;1.42;;;27.20;49.10;;;;;;5021649;28;20056;-72
2021/08/01 09:00:01;;;;;;;1.60;1.10;;;27.00;49.60;;;;;;5028559;28;20100;-72
2021/08/01 09:02:27;;;;;;;4.82;1.20;;;27.20;50.00;;;;;;5016739;28;20444;-73
2021/08/01 09:04:57;;;;;;;1.60;1.10;;;27.20;49.40;;;;;;5022007;28;20033;-71
2021/08/01 09:07:23;;;;;;;2.78;1.38;;;27.40;48.20;;;;;;5038341;28;20112;-71
2021/08/01 09:09:48;;;;;;;1.13;0.90;;;27.40;48.10;;;;;;5045268;28;20100;-71
2021/08/01 09:12:14;;;;;;;1.88;0.95;;;27.50;47.70;;;;;;5036169;28;20471;-72
2021/08/01 09:14:40;;;;;;;0.80;0.80;;;27.50;46.60;;;;;;5036226;28;20048;-72
2021/08/01 09:17:06;;;;;;;1.85;1.05;;;27.40;47.50;;;;;;5034843;28;20025;-72
2021/08/01 09:19:34;;;;;;;1.20;0.85;;;27.40;46.60;;;;;;5032626;28;20021;-72
2021/08/01 09:22:29;;;;;;;3.67;0.80;;;27.30;46.80;;;;;;5035055;28;20025;-72
2021/08/01 09:24:56;;;;;;;0.70;0.63;;;27.10;47.50;;;;;;5030786;28;20048;-72
2021/08/01 09:27:33;;;;;;;1.27;0.93;;;27.10;47.40;;;;;;5034276;28;20428;-71
2021/08/01 09:30:01;;;;;;;2.40;1.60;;;27.00;46.50;;;;;;5032783;28;20446;-71
2021/08/01 09:32:31;;;;;;;2.03;1.42;;;26.70;45.10;;;;;;5035138;28;20373;-72
2021/08/01 09:34:57;;;;;;;1.77;1.38;;;26.50;45.90;;;;;;5035090;28;20471;-71
2021/08/01 09:37:35;;;;;;;2.22;1.00;;;26.30;46.60;;;;;;5035549;28;20075;-70
2021/08/01 09:40:12;;;;;;;1.80;1.67;;;26.20;47.30;;;;;;5034368;28;20014;-71
2021/08/01 09:42:46;;;;;;;2.83;1.67;;;26.10;47.10;;;;;;5035828;28;20025;-72
2021/08/01 09:45:16;;;;;;;5.32;1.35;;;25.90;46.60;;;;;;5034004;28;20025;-71
2021/08/01 09:47:43;;;;;;;2.83;1.40;;;25.80;46.90;;;;;;5035878;28;20029;-71
2021/08/01 09:50:09;;;;;;;2.42;1.50;;;25.60;47.10;;;;;;5032817;28;20032;-71
2021/08/01 09:52:35;;;;;;;1.83;1.30;;;25.30;47.20;;;;;;5034813;28;20026;-71
2021/08/01 09:55:01;;;;;;;2.50;0.95;;;25.20;47.90;;;;;;5035138;28;20105;-71
2021/08/01 09:57:27;;;;;;;1.75;0.93;;;25.10;48.40;;;;;;5034899;28;20021;-71
2021/08/01 10:00:09;;;;;;;3.00;1.50;;;25.00;48.60;;;;;;5034286;28;20163;-71
2021/08/01 10:02:40;;;;;;;3.58;1.17;;;25.00;49.00;;;;;;5033099;28;20368;-70
2021/08/01 10:05:15;;;;;;;1.75;1.00;;;24.90;48.90;;;;;;5034167;28;20030;-71
2021/08/01 10:07:46;;;;;;;2.08;0.77;;;24.80;49.40;;;;;;5034447;28;20068;-72
2021/08/01 10:10:25;;;;;;;1.30;1.00;;;24.80;49.70;;;;;;5033211;28;20025;-72
2021/08/01 10:12:53;;;;;;;2.15;1.27;;;24.70;49.40;;;;;;5034912;28;20395;-71
2021/08/01 10:15:20;;;;;;;5.05;1.20;;;24.70;50.00;;;;;;5033998;28;20027;-72
2021/08/01 10:17:46;;;;;;;1.10;0.90;;;24.70;50.00;;;;;;5034155;28;20387;-70
2021/08/01 10:20:12;;;;;;;2.42;1.30;;;24.60;49.80;;;;;;5034514;28;20029;-70
2021/08/01 10:22:40;;;;;;;4.63;1.35;;;24.60;50.00;;;;;;5033065;28;20033;-70
2021/08/01 10:25:11;;;;;;;1.92;1.08;;;24.60;49.90;;;;;;5034942;28;20141;-71
2021/08/01 10:27:43;;;;;;;2.90;1.17;;;24.60;49.90;;;;;;5035084;28;20407;-70
2021/08/01 10:30:10;;;;;;;0.95;0.75;;;24.60;49.90;;;;;;5035046;28;20356;-71
2021/08/01 10:32:42;;;;;;;3.38;1.08;;;24.70;50.60;;;;;;5034876;28;20141;-71
2021/08/01 10:35:14;;;;;;;1.20;1.10;;;24.80;50.60;;;;;;5034789;28;20029;-72
2021/08/01 10:37:43;;;;;;;1.55;1.10;;;24.90;50.20;;;;;;5034916;28;20017;-71
2021/08/01 10:40:11;;;;;;;1.98;1.30;;;25.00;50.20;;;;;;5033573;28;20021;-71
2021/08/01 10:42:44;;;;;;;2.15;1.20;;;25.10;49.70;;;;;;5034799;28;20380;-71
2021/08/01 10:45:11;;;;;;;2.25;1.40;;;25.10;49.60;;;;;;5035021;28;20030;-72
2021/08/01 10:47:42;;;;;;;2.25;1.05;;;25.10;48.90;;;;;;5036179;28;20428;-71
2021/08/01 10:50:09;;;;;;;1.52;0.95;;;25.10;48.60;;;;;;5034547;28;20112;-72
2021/08/01 10:52:35;;;;;;;2.85;1.15;;;25.10;49.20;;;;;;5029325;28;20049;-72
2021/08/01 10:55:04;;;;;;;1.58;1.20;;;25.00;48.50;;;;;;5033115;28;20487;-71
2021/08/01 10:57:31;;;;;;;5.10;1.58;;;25.00;48.90;;;;;;5034313;28;20028;-71
2021/08/01 11:00:04;;;;;;;4.03;1.58;;;25.00;48.80;;;;;;5034250;28;20022;-71
2021/08/01 11:02:32;;;;;;;2.78;1.52;;;24.90;48.90;;;;;;5034283;28;20075;-72
2021/08/01 11:05:18;;;;;;;2.25;1.75;;;24.80;49.10;;;;;;5034333;28;20053;-73
2021/08/01 11:07:47;;;;;;;3.60;1.70;;;24.80;49.10;;;;;;5032667;28;20036;-72
2021/08/01 11:10:17;;;;;;;3.78;1.50;;;24.80;49.40;;;;;;5034050;28;20022;-72
2021/08/01 11:12:44;;;;;;;3.45;1.27;;;24.70;49.30;;;;;;5032677;28;20033;-72
2021/08/01 11:15:12;;;;;;;2.10;1.27;;;24.70;49.50;;;;;;5033825;28;20029;-72
2021/08/01 11:17:46;;;;;;;1.50;1.40;;;24.60;49.60;;;;;;5033243;28;20533;-72
2021/08/01 11:20:23;;;;;;;;;;;24.60;49.40;;;;;;5034288;28;20021;-72
2021/08/01 11:22:53;;;;;;;5.18;1.45;;;24.60;49.80;;;;;;5023219;28;19995;-71
2021/08/01 11:25:30;;;;;;;6.30;1.70;;;24.60;49.20;;;;;;5033712;28;20033;-72
2021/08/01 11:28:08;;;;;;;1.55;1.25;;;24.50;49.10;;;;;;5032706;28;20045;-71
2021/08/01 11:30:49;;;;;;;4.55;1.15;;;24.40;49.30;;;;;;5033206;28;20077;-72
2021/08/01 11:33:39;;;;;;;1.65;1.45;;;24.30;49.80;;;;;;5033643;28;20557;-72
2021/08/01 11:36:17;;;;;;;1.67;1.25;;;24.30;49.90;;;;;;5033542;28;20030;-71
2021/08/01 11:38:52;;;;;;;2.58;1.58;;;24.30;50.00;;;;;;5033488;28;20025;-73
2021/08/01 11:41:38;;;;;;;2.47;1.50;;;24.30;49.90;;;;;;5032616;28;20435;-72
2021/08/01 11:44:08;;;;;;;2.03;1.50;;;24.30;50.00;;;;;;5033400;28;20021;-73
2021/08/01 11:46:57;;;;;;;1.65;1.40;;;24.40;50.00;;;;;;5032203;28;20029;-73
2021/08/01 11:49:47;;;;;;;1.60;1.20;;;24.30;49.80;;;;;;5032189;28;20030;-73
2021/08/01 11:52:19;;;;;;;3.78;1.55;;;24.40;49.70;;;;;;5032537;28;20039;-71
2021/08/01 11:54:45;;;;;;;1.77;1.55;;;24.30;49.70;;;;;;5033322;28;20079;-72
2021/08/01 11:57:15;;;;;;;4.00;1.83;;;24.20;49.50;;;;;;5033250;28;20407;-73
2021/08/01 11:59:43;;;;;;;4.15;1.45;;;24.10;49.60;;;;;;5033240;28;20017;-73
2021/08/01 12:02:16;;;;;;;2.88;1.40;;;24.10;49.90;;;;;;5032769;28;20025;-74
2021/08/01 12:04:56;;;;;;;2.50;1.50;;;24.00;50.00;;;;;;5032794;28;20399;-73
2021/08/01 12:07:37;;;;;;;1.27;1.17;;;23.90;49.80;;;;;;5032899;28;20102;-74
2021/08/01 12:10:16;;;;;;;1.70;1.13;;;23.80;50.10;;;;;;5033150;28;20109;-73
2021/08/01 12:12:42;;;;;;;2.53;1.25;;;23.80;50.30;;;;;;5033078;28;20119;-72
2021/08/01 12:15:08;;;;;;;2.75;1.55;;;23.80;50.60;;;;;;5033078;28;20491;-74
2021/08/01 12:17:37;;;;;;;3.75;1.35;;;23.70;50.60;;;;;;5033123;28;20026;-73
2021/08/01 12:20:04;;;;;;;2.10;1.33;;;23.70;50.70;;;;;;5032998;28;20490;-73
2021/08/01 12:22:30;;;;;;;3.55;1.58;;;23.70;51.10;;;;;;5032035;28;20026;-73
2021/08/01 12:24:58;;;;;;;2.28;1.33;;;23.60;50.80;;;;;;5032929;28;20033;-71
2021/08/01 12:27:29;;;;;;;1.45;1.33;;;23.60;51.00;;;;;;5032819;28;20028;-73
2021/08/01 12:30:19;;;;;;;1.25;1.10;;;23.60;50.70;;;;;;5032825;28;20051;-72
2021/08/01 12:32:50;;;;;;;1.50;1.13;;;23.70;50.90;;;;;;5032746;28;20055;-73
2021/08/01 12:35:22;;;;;;;2.80;1.10;;;23.60;50.90;;;;;;5032673;28;20025;-74
2021/08/01 12:37:52;;;;;;;3.65;1.48;;;23.60;51.00;;;;;;5032853;28;20018;-72
2021/08/01 12:40:32;;;;;;;4.18;1.00;;;23.60;51.10;;;;;;5032938;28;20105;-73
2021/08/01 12:43:08;;;;;;;3.85;1.65;;;23.50;51.20;;;;;;5032765;28;20021;-74
2021/08/01 12:45:40;;;;;;;3.47;1.65;;;23.50;51.20;;;;;;5032626;28;20030;-72
2021/08/01 12:48:14;;;;;;;1.40;0.90;;;23.40;51.50;;;;;;5032508;28;20518;-73
2021/08/01 12:50:46;;;;;;;1.00;0.90;;;23.40;51.60;;;;;;5032760;28;20021;-73
2021/08/01 12:53:14;;;;;;;2.20;1.00;;;23.40;51.70;;;;;;5030518;28;20040;-72
2021/08/01 12:55:40;;;;;;;0.80;0.80;;;23.40;51.80;;;;;;5032276;28;20022;-73